createdAt,value
2018-03-08T00:00:09.998Z,35.06
2018-03-08T00:01:10.013Z,34.99
2018-03-08T00:02:09.999Z,35.1
2018-03-08T00:03:10.025Z,34.88
2018-03-08T00:04:09.995Z,34.87
2018-03-08T00:05:09.990Z,35.03
2018-03-08T00:06:10.001Z,35.22
2018-03-08T00:07:10.070Z,35.06
2018-03-08T00:08:10.030Z,35.02
2018-03-08T00:09:10.009Z,35.06
2018-03-08T00:10:10.004Z,35.08
2018-03-08T00:11:09.999Z,35.04
2018-03-08T00:12:09.999Z,35.01
2018-03-08T00:13:10.038Z,34.93
2018-03-08T00:14:09.991Z,34.98
2018-03-08T00:15:10.004Z,35
2018-03-08T00:16:10.000Z,34.98
2018-03-08T00:17:10.024Z,34.97
2018-03-08T00:18:10.023Z,35.1
2018-03-08T00:19:10.001Z,34.92
2018-03-08T00:20:12.049Z,35.08
2018-03-08T00:21:10.016Z,35.02
2018-03-08T00:22:10.012Z,35.04
2018-03-08T00:23:10.282Z,35.09
2018-03-08T00:24:09.999Z,35.03
2018-03-08T00:25:10.007Z,35.05
2018-03-08T00:26:10.041Z,34.87
2018-03-08T00:27:10.005Z,34.93
2018-03-08T00:28:10.036Z,35.22
2018-03-08T00:29:09.986Z,35.08
2018-03-08T00:30:10.015Z,35.12
2018-03-08T00:31:10.009Z,35.02
2018-03-08T00:32:10.047Z,34.99
2018-03-08T00:33:10.018Z,35.04
2018-03-08T00:34:10.013Z,35.03
2018-03-08T00:35:09.981Z,35.06
2018-03-08T00:36:10.021Z,34.99
2018-03-08T00:37:09.990Z,35.12
2018-03-08T00:38:10.161Z,35.03
2018-03-08T00:39:10.271Z,35.08
2018-03-08T00:40:10.010Z,35
2018-03-08T00:41:09.994Z,35.01
2018-03-08T00:42:10.058Z,35.11
2018-03-08T00:43:09.995Z,35.11
2018-03-08T00:44:10.017Z,35.1
2018-03-08T00:45:10.059Z,35.02
2018-03-08T00:46:09.994Z,35.06
2018-03-08T00:47:10.006Z,34.96
2018-03-08T00:48:09.988Z,35.01
2018-03-08T00:49:09.989Z,35.03
2018-03-08T00:50:09.992Z,35.08
2018-03-08T00:51:10.012Z,35.08
2018-03-08T00:52:10.003Z,35.08
2018-03-08T00:53:09.982Z,35.06
2018-03-08T00:54:09.983Z,35.12
2018-03-08T00:55:09.992Z,35.1
2018-03-08T00:56:10.031Z,35.13
2018-03-08T00:57:09.994Z,35.01
2018-03-08T00:58:09.988Z,35.09
2018-03-08T00:59:09.979Z,35.13
2018-03-08T01:00:09.983Z,35.17
2018-03-08T01:01:10.015Z,35.08
2018-03-08T01:02:10.080Z,35.13
2018-03-08T01:03:10.050Z,35.16
2018-03-08T01:04:09.987Z,35.13
2018-03-08T01:05:10.049Z,35.21
2018-03-08T01:06:10.002Z,35.1
2018-03-08T01:07:09.989Z,35.16
2018-03-08T01:08:09.986Z,35.08
2018-03-08T01:09:10.083Z,35.11
2018-03-08T01:10:10.023Z,35.05
2018-03-08T01:11:10.044Z,35.09
2018-03-08T01:12:10.002Z,35.17
2018-03-08T01:13:09.984Z,35.12
2018-03-08T01:14:09.982Z,35.32
2018-03-08T01:15:10.008Z,35.18
2018-03-08T01:16:09.998Z,35.05
2018-03-08T01:17:09.977Z,35.22
2018-03-08T01:18:09.982Z,35.06
2018-03-08T01:19:09.976Z,35.01
2018-03-08T01:20:09.981Z,35.16
2018-03-08T01:21:09.981Z,35.19
2018-03-08T01:22:09.981Z,35.14
2018-03-08T01:23:09.972Z,35.1
2018-03-08T01:24:09.974Z,35.21
2018-03-08T01:25:09.983Z,35.23
2018-03-08T01:26:09.974Z,35.19
2018-03-08T01:27:10.228Z,35.27
2018-03-08T01:28:09.982Z,35.09
2018-03-08T01:29:09.977Z,35.11
2018-03-08T01:30:09.970Z,35.03
2018-03-08T01:31:09.979Z,35.07
2018-03-08T01:32:10.057Z,35.03
2018-03-08T01:33:09.975Z,35.18
2018-03-08T01:34:09.978Z,35.2
2018-03-08T01:35:10.002Z,35.26
2018-03-08T01:36:09.977Z,35.3
2018-03-08T01:37:09.984Z,35.14
2018-03-08T01:38:09.968Z,35.13
2018-03-08T01:39:10.031Z,35.14
2018-03-08T01:40:09.985Z,35.21
2018-03-08T01:41:09.968Z,35.15
2018-03-08T01:42:09.981Z,35.18
2018-03-08T01:43:10.007Z,35.2
2018-03-08T01:44:09.984Z,35.25
2018-03-08T01:45:09.965Z,35.21
2018-03-08T01:46:09.975Z,35.24
2018-03-08T01:47:09.964Z,35.16
2018-03-08T01:48:10.088Z,35.17
2018-03-08T01:49:10.004Z,35.19
2018-03-08T01:50:09.964Z,35.12
2018-03-08T01:51:09.986Z,35.17
2018-03-08T01:52:09.981Z,35.15
2018-03-08T01:53:09.963Z,35.16
2018-03-08T01:54:09.981Z,35.12
2018-03-08T01:55:09.958Z,35.07
2018-03-08T01:56:09.974Z,35.15
2018-03-08T01:57:09.966Z,35.2
2018-03-08T01:58:09.969Z,35.17
2018-03-08T01:59:09.990Z,35.2
2018-03-08T02:00:09.971Z,35.12
2018-03-08T02:01:09.960Z,35.08
2018-03-08T02:02:09.968Z,35.24
2018-03-08T02:03:09.970Z,35.1
2018-03-08T02:04:09.987Z,35.17
2018-03-08T02:05:09.981Z,35.17
2018-03-08T02:06:09.966Z,35.13
2018-03-08T02:07:09.968Z,35.14
2018-03-08T02:08:09.961Z,35.34
2018-03-08T02:09:09.965Z,35.17
2018-03-08T02:10:09.991Z,35.19
2018-03-08T02:11:09.954Z,35.12
2018-03-08T02:12:09.961Z,35.07
2018-03-08T02:13:09.968Z,35.12
2018-03-08T02:14:09.965Z,35.2
2018-03-08T02:15:09.969Z,35.21
2018-03-08T02:16:09.964Z,35.17
2018-03-08T02:17:09.958Z,35.21
2018-03-08T02:18:09.961Z,35.11
2018-03-08T02:19:09.949Z,35.13
2018-03-08T02:20:09.993Z,35.12
2018-03-08T02:21:09.952Z,35.08
2018-03-08T02:22:09.946Z,35.15
2018-03-08T02:23:09.956Z,35.19
2018-03-08T02:24:09.951Z,35.17
2018-03-08T02:25:09.976Z,35.18
2018-03-08T02:26:09.955Z,35.18
2018-03-08T02:27:09.965Z,35.23
2018-03-08T02:28:09.952Z,35.33
2018-03-08T02:29:09.950Z,35.31
2018-03-08T02:30:09.957Z,35.13
2018-03-08T02:31:09.971Z,35.23
2018-03-08T02:32:09.960Z,35.25
2018-03-08T02:33:09.946Z,35.34
2018-03-08T02:34:09.953Z,35.05
2018-03-08T02:35:09.976Z,35.3
2018-03-08T02:36:10.210Z,35.33
2018-03-08T02:37:09.949Z,35.1
2018-03-08T02:38:09.942Z,35.26
2018-03-08T02:39:09.995Z,35.18
2018-03-08T02:40:09.943Z,35.08
2018-03-08T02:41:09.992Z,35.08
2018-03-08T02:42:09.955Z,35.27
2018-03-08T02:43:09.962Z,35.16
2018-03-08T02:44:09.952Z,35.28
2018-03-08T02:45:09.963Z,35.34
2018-03-08T02:46:09.980Z,35.12
2018-03-08T02:47:09.934Z,35.05
2018-03-08T02:48:09.971Z,35.19
2018-03-08T02:49:09.946Z,35.2
2018-03-08T02:50:09.974Z,35.15
2018-03-08T02:51:09.959Z,35.14
2018-03-08T02:52:09.985Z,35.16
2018-03-08T02:53:09.961Z,35.15
2018-03-08T02:54:09.961Z,35.23
2018-03-08T02:55:09.958Z,35.17
2018-03-08T02:56:09.950Z,35.04
2018-03-08T02:57:09.980Z,35.16
2018-03-08T02:58:09.949Z,35.11
2018-03-08T02:59:10.230Z,35.12
2018-03-08T03:00:09.951Z,35.15
2018-03-08T03:01:09.944Z,35.07
2018-03-08T03:02:09.984Z,35.22
2018-03-08T03:03:10.041Z,35.25
2018-03-08T03:04:09.978Z,35.19
2018-03-08T03:05:09.964Z,35.35
2018-03-08T03:06:09.937Z,35.18
2018-03-08T03:07:09.940Z,35.28
2018-03-08T03:08:09.941Z,35.14
2018-03-08T03:09:09.925Z,35.18
2018-03-08T03:10:09.953Z,35.23
2018-03-08T03:11:09.978Z,35.05
2018-03-08T03:12:09.945Z,35.18
2018-03-08T03:13:09.950Z,35.17
2018-03-08T03:14:09.944Z,35.2
2018-03-08T03:15:09.945Z,35.16
2018-03-08T03:16:09.948Z,35.18
2018-03-08T03:17:09.935Z,35.19
2018-03-08T03:18:09.926Z,35.16
2018-03-08T03:19:09.939Z,35.2
2018-03-08T03:20:09.928Z,35.21
2018-03-08T03:21:09.940Z,35.23
2018-03-08T03:22:09.941Z,35.15
2018-03-08T03:23:09.935Z,35.25
2018-03-08T03:24:10.003Z,35.07
2018-03-08T03:25:09.957Z,35.3
2018-03-08T03:26:09.937Z,35.2
2018-03-08T03:27:09.944Z,35
2018-03-08T03:28:09.937Z,35.06
2018-03-08T03:29:09.943Z,35.16
2018-03-08T03:30:09.931Z,35.17
2018-03-08T03:31:09.936Z,35.17
2018-03-08T03:32:09.962Z,35.34
2018-03-08T03:33:09.938Z,35.18
2018-03-08T03:34:09.960Z,35.21
2018-03-08T03:35:09.940Z,35.12
2018-03-08T03:36:10.259Z,35.14
2018-03-08T03:37:09.934Z,35.16
2018-03-08T03:38:09.944Z,35.35
2018-03-08T03:39:09.931Z,35.17
2018-03-08T03:40:09.931Z,35.26
2018-03-08T03:41:09.955Z,35.18
2018-03-08T03:42:09.940Z,35.25
2018-03-08T03:43:09.926Z,35.12
2018-03-08T03:44:09.931Z,35.2
2018-03-08T03:45:09.982Z,35.16
2018-03-08T03:46:09.977Z,35.12
2018-03-08T03:47:09.937Z,35.13
2018-03-08T03:48:09.939Z,35.32
2018-03-08T03:49:09.932Z,35.26
2018-03-08T03:50:09.927Z,35.23
2018-03-08T03:51:09.933Z,35.25
2018-03-08T03:52:09.943Z,35.14
2018-03-08T03:53:09.928Z,35.09
2018-03-08T03:54:09.924Z,35.13
2018-03-08T03:55:09.977Z,34.99
2018-03-08T03:56:09.918Z,35.32
2018-03-08T03:57:09.935Z,35.15
2018-03-08T03:58:09.932Z,35.13
2018-03-08T03:59:09.920Z,35.23
2018-03-08T04:00:09.986Z,35.18
2018-03-08T04:01:09.938Z,35.25
2018-03-08T04:02:09.920Z,35.28
2018-03-08T04:03:09.921Z,35.3
2018-03-08T04:04:09.926Z,35.15
2018-03-08T04:05:09.955Z,35.25
2018-03-08T04:06:09.910Z,35.28
2018-03-08T04:07:09.926Z,35.15
2018-03-08T04:08:09.922Z,35.17
2018-03-08T04:09:09.925Z,35.19
2018-03-08T04:10:09.936Z,35.21
2018-03-08T04:11:09.923Z,35.13
2018-03-08T04:12:10.041Z,35.14
2018-03-08T04:13:09.919Z,35.14
2018-03-08T04:14:09.918Z,35.11
2018-03-08T04:15:09.946Z,35.1
2018-03-08T04:16:09.921Z,35.16
2018-03-08T04:17:09.916Z,35.2
2018-03-08T04:18:09.917Z,35.22
2018-03-08T04:19:09.907Z,35.22
2018-03-08T04:20:09.910Z,35.14
2018-03-08T04:21:09.909Z,35.24
2018-03-08T04:22:09.914Z,35.07
2018-03-08T04:23:09.929Z,35.23
2018-03-08T04:24:09.922Z,35.28
2018-03-08T04:25:09.925Z,35.22
2018-03-08T04:26:09.913Z,35.2
2018-03-08T04:27:09.920Z,34.97
2018-03-08T04:28:09.915Z,35.04
2018-03-08T04:29:09.915Z,35.14
2018-03-08T04:30:10.012Z,35.15
2018-03-08T04:31:09.996Z,35.18
2018-03-08T04:32:09.990Z,35.28
2018-03-08T04:33:09.988Z,35.18
2018-03-08T04:34:09.992Z,35.19
2018-03-08T04:35:10.008Z,35.29
2018-03-08T04:36:09.995Z,35.25
2018-03-08T04:37:10.009Z,35.1
2018-03-08T04:38:09.987Z,35.3
2018-03-08T04:39:09.994Z,35.13
2018-03-08T04:40:09.982Z,35.08
2018-03-08T04:41:09.987Z,35.13
2018-03-08T04:42:09.999Z,35.01
2018-03-08T04:43:09.987Z,35.24
2018-03-08T04:44:09.989Z,35.23
2018-03-08T04:45:09.994Z,35.2
2018-03-08T04:46:09.985Z,35.32
2018-03-08T04:47:09.980Z,35.08
2018-03-08T04:48:09.997Z,35.09
2018-03-08T04:49:10.021Z,35.23
2018-03-08T04:50:09.972Z,35.36
2018-03-08T04:51:09.946Z,35.38
2018-03-08T04:52:09.921Z,35.23
2018-03-08T04:53:10.265Z,35.22
2018-03-08T04:54:09.974Z,35.22
2018-03-08T04:55:09.978Z,35.26
2018-03-08T04:56:09.946Z,35.18
2018-03-08T04:57:09.976Z,35.36
2018-03-08T04:58:09.983Z,35.15
2018-03-08T04:59:09.943Z,35.2
2018-03-08T05:00:09.947Z,35.38
2018-03-08T05:01:09.955Z,35.21
2018-03-08T05:02:09.954Z,35.21
2018-03-08T05:03:10.006Z,35.1
2018-03-08T05:04:10.053Z,35.19
2018-03-08T05:05:09.938Z,35.07
2018-03-08T05:06:09.955Z,35.04
2018-03-08T05:07:09.964Z,35.24
2018-03-08T05:08:09.944Z,35.06
2018-03-08T05:09:09.973Z,35.09
2018-03-08T05:10:10.034Z,35
2018-03-08T05:11:09.955Z,35.21
2018-03-08T05:12:09.967Z,35.33
2018-03-08T05:13:09.973Z,35.58
2018-03-08T05:14:09.980Z,35.6
2018-03-08T05:15:09.974Z,36.14
2018-03-08T05:16:09.948Z,35.72
2018-03-08T05:17:09.954Z,35.63
2018-03-08T05:18:09.971Z,35.85
2018-03-08T05:19:10.220Z,35.58
2018-03-08T05:20:09.958Z,35.71
2018-03-08T05:21:09.967Z,35.92
2018-03-08T05:22:09.906Z,35.96
2018-03-08T05:23:09.902Z,35.79
2018-03-08T05:24:09.974Z,35.55
2018-03-08T05:25:09.967Z,35.78
2018-03-08T05:26:09.959Z,35.52
2018-03-08T05:27:09.960Z,35.93
2018-03-08T05:28:09.933Z,35.43
2018-03-08T05:29:10.225Z,35.34
2018-03-08T05:30:09.936Z,35.41
2018-03-08T05:31:09.948Z,35.24
2018-03-08T05:32:09.916Z,35.36
2018-03-08T05:33:09.909Z,35.33
2018-03-08T05:34:09.911Z,35.47
2018-03-08T05:35:09.888Z,35.36
2018-03-08T05:36:09.889Z,35.42
2018-03-08T05:37:09.892Z,35.27
2018-03-08T05:38:09.890Z,35.44
2018-03-08T05:39:09.899Z,35.3
2018-03-08T05:40:09.921Z,35.39
2018-03-08T05:41:09.895Z,35.37
2018-03-08T05:42:09.902Z,35.34
2018-03-08T05:43:09.896Z,35.41
2018-03-08T05:44:09.889Z,35.26
2018-03-08T05:45:10.158Z,35.21
2018-03-08T05:46:09.894Z,35.29
2018-03-08T05:47:09.893Z,35.37
2018-03-08T05:48:09.887Z,35.31
2018-03-08T05:49:09.882Z,35.36
2018-03-08T05:50:09.910Z,35.38
2018-03-08T05:51:09.896Z,35.28
2018-03-08T05:52:09.884Z,35.32
2018-03-08T05:53:09.916Z,35.33
2018-03-08T05:54:09.885Z,35.38
2018-03-08T05:55:09.881Z,35.3
2018-03-08T05:56:09.914Z,35.28
2018-03-08T05:57:09.885Z,35.25
2018-03-08T05:58:09.891Z,35.35
2018-03-08T05:59:09.881Z,35.26
2018-03-08T06:00:09.881Z,35.33
2018-03-08T06:01:09.882Z,35.24
2018-03-08T06:02:09.886Z,35.24
2018-03-08T06:03:09.888Z,35.36
2018-03-08T06:04:09.885Z,35.18
2018-03-08T06:05:09.897Z,35.31
2018-03-08T06:06:09.915Z,35.35
2018-03-08T06:07:09.883Z,35.32
2018-03-08T06:08:09.891Z,35.19
2018-03-08T06:09:09.881Z,35.17
2018-03-08T06:10:09.882Z,35.2
2018-03-08T06:11:09.906Z,35.25
2018-03-08T06:12:09.907Z,35.23
2018-03-08T06:13:09.879Z,35.19
2018-03-08T06:14:09.881Z,35.23
2018-03-08T06:15:09.880Z,35.16
2018-03-08T06:16:09.878Z,35.19
2018-03-08T06:17:09.898Z,35.28
2018-03-08T06:18:09.874Z,35.16
2018-03-08T06:19:09.877Z,35.15
2018-03-08T06:20:09.879Z,35.24
2018-03-08T06:21:09.876Z,35.06
2018-03-08T06:22:09.897Z,34.96
2018-03-08T06:23:09.880Z,35.23
2018-03-08T06:24:09.877Z,35.13
2018-03-08T06:25:09.873Z,35.16
2018-03-08T06:26:09.910Z,35.11
2018-03-08T06:27:09.904Z,35.12
2018-03-08T06:28:09.883Z,35.18
2018-03-08T06:29:09.876Z,35.13
2018-03-08T06:30:09.901Z,35.18
2018-03-08T06:31:09.875Z,35.24
2018-03-08T06:32:09.896Z,34.99
2018-03-08T06:33:09.869Z,35.1
2018-03-08T06:34:09.870Z,35.05
2018-03-08T06:35:09.857Z,35.05
2018-03-08T06:36:09.875Z,35.09
2018-03-08T06:37:10.182Z,35.04
2018-03-08T06:38:09.869Z,35.09
2018-03-08T06:39:09.879Z,35.08
2018-03-08T06:40:09.883Z,35.04
2018-03-08T06:41:09.869Z,34.95
2018-03-08T06:42:09.894Z,34.99
2018-03-08T06:43:09.869Z,34.96
2018-03-08T06:44:09.881Z,35.01
2018-03-08T06:45:09.870Z,35.03
2018-03-08T06:46:09.872Z,35.07
2018-03-08T06:47:09.892Z,35.03
2018-03-08T06:48:09.890Z,34.99
2018-03-08T06:49:09.876Z,35.08
2018-03-08T06:50:09.880Z,34.95
2018-03-08T06:51:09.856Z,35.01
2018-03-08T06:52:09.867Z,35.02
2018-03-08T06:53:10.141Z,34.94
2018-03-08T06:54:09.856Z,34.94
2018-03-08T06:55:09.852Z,34.96
2018-03-08T06:56:09.877Z,34.94
2018-03-08T06:57:09.873Z,34.94
2018-03-08T06:58:09.887Z,34.96
2018-03-08T06:59:09.861Z,34.94
2018-03-08T07:00:09.858Z,35
2018-03-08T07:01:09.868Z,34.95
2018-03-08T07:02:09.868Z,34.93
2018-03-08T07:03:09.876Z,34.94
2018-03-08T07:04:09.925Z,34.94
2018-03-08T07:05:09.975Z,34.96
2018-03-08T07:06:09.858Z,34.92
2018-03-08T07:07:09.866Z,34.9
2018-03-08T07:08:09.866Z,34.9
2018-03-08T07:09:09.861Z,34.9
2018-03-08T07:10:09.863Z,34.95
2018-03-08T07:11:09.869Z,34.93
2018-03-08T07:12:09.859Z,34.92
2018-03-08T07:13:09.887Z,34.96
2018-03-08T07:14:09.865Z,34.92
2018-03-08T07:15:09.864Z,34.87
2018-03-08T07:16:09.925Z,34.94
2018-03-08T07:17:09.856Z,34.92
2018-03-08T07:18:09.857Z,34.91
2018-03-08T07:19:09.863Z,34.89
2018-03-08T07:20:09.860Z,34.86
2018-03-08T07:21:09.884Z,34.91
2018-03-08T07:22:09.858Z,34.84
2018-03-08T07:23:09.866Z,34.89
2018-03-08T07:24:09.853Z,34.89
2018-03-08T07:25:09.924Z,34.9
2018-03-08T07:26:09.881Z,34.85
2018-03-08T07:27:09.867Z,34.54
2018-03-08T07:28:09.847Z,34.8
2018-03-08T07:29:09.864Z,34.85
2018-03-08T07:30:09.855Z,34.86
2018-03-08T07:31:09.880Z,34.78
2018-03-08T07:32:09.867Z,34.74
2018-03-08T07:33:09.863Z,34.72
2018-03-08T07:34:09.862Z,34.63
2018-03-08T07:35:09.903Z,34.63
2018-03-08T07:36:09.855Z,34.69
2018-03-08T07:37:09.876Z,34.48
2018-03-08T07:38:09.853Z,34.92
2018-03-08T07:39:09.853Z,34.81
2018-03-08T07:40:09.867Z,34.81
2018-03-08T07:41:09.857Z,34.82
2018-03-08T07:42:09.878Z,34.9
2018-03-08T07:43:09.857Z,34.96
2018-03-08T07:44:09.871Z,34.88
2018-03-08T07:45:09.862Z,34.87
2018-03-08T07:46:09.855Z,34.86
2018-03-08T07:47:09.861Z,34.82
2018-03-08T07:48:09.856Z,34.84
2018-03-08T07:49:09.846Z,34.8
2018-03-08T07:50:09.856Z,34.75
2018-03-08T07:51:09.844Z,34.76
2018-03-08T07:52:09.846Z,34.84
2018-03-08T07:53:09.848Z,34.86
2018-03-08T07:54:09.861Z,34.93
2018-03-08T07:55:09.857Z,34.84
2018-03-08T07:56:09.852Z,34.8
2018-03-08T07:57:09.847Z,34.82
2018-03-08T07:58:09.865Z,34.79
2018-03-08T07:59:09.852Z,34.77
2018-03-08T08:00:09.847Z,34.86
2018-03-08T08:01:09.845Z,34.83
2018-03-08T08:02:09.871Z,34.78
2018-03-08T08:03:09.845Z,34.75
2018-03-08T08:04:09.862Z,34.73
2018-03-08T08:05:09.841Z,34.79
2018-03-08T08:06:09.844Z,34.68
2018-03-08T08:07:09.850Z,34.72
2018-03-08T08:08:10.142Z,34.73
2018-03-08T08:09:09.893Z,34.83
2018-03-08T08:10:09.847Z,34.68
2018-03-08T08:11:09.845Z,34.78
2018-03-08T08:12:09.839Z,34.71
2018-03-08T08:13:09.873Z,34.7
2018-03-08T08:14:09.842Z,34.74
2018-03-08T08:15:09.839Z,34.67
2018-03-08T08:16:09.839Z,34.72
2018-03-08T08:17:09.849Z,34.74
2018-03-08T08:18:09.866Z,34.65
2018-03-08T08:19:09.850Z,34.61
2018-03-08T08:20:09.854Z,34.68
2018-03-08T08:21:10.029Z,34.72
2018-03-08T08:22:09.833Z,34.69
2018-03-08T08:23:09.841Z,34.7
2018-03-08T08:24:09.855Z,34.64
2018-03-08T08:25:09.848Z,34.57
2018-03-08T08:26:09.848Z,34.63
2018-03-08T08:27:09.842Z,34.61
2018-03-08T08:28:09.861Z,34.61
2018-03-08T08:29:09.840Z,34.67
2018-03-08T08:30:09.845Z,34.64
2018-03-08T08:31:09.840Z,34.64
2018-03-08T08:32:09.836Z,34.61
2018-03-08T08:33:09.838Z,34.69
2018-03-08T08:34:09.873Z,34.59
2018-03-08T08:35:09.833Z,34.65
2018-03-08T08:36:09.879Z,34.58
2018-03-08T08:37:09.830Z,34.64
2018-03-08T08:38:09.844Z,34.56
2018-03-08T08:39:09.861Z,34.67
2018-03-08T08:40:09.850Z,34.6
2018-03-08T08:41:09.826Z,34.57
2018-03-08T08:42:09.837Z,34.52
2018-03-08T08:43:09.833Z,34.52
2018-03-08T08:44:09.833Z,34.58
2018-03-08T08:45:09.830Z,34.55
2018-03-08T08:46:09.823Z,34.6
2018-03-08T08:47:09.818Z,34.55
2018-03-08T08:48:09.828Z,34.52
2018-03-08T08:49:09.835Z,34.58
2018-03-08T08:50:09.843Z,34.57
2018-03-08T08:51:09.826Z,34.52
2018-03-08T08:52:09.832Z,34.56
2018-03-08T08:53:09.829Z,34.46
2018-03-08T08:54:09.866Z,34.54
2018-03-08T08:55:09.829Z,34.54
2018-03-08T08:56:09.834Z,34.49
2018-03-08T08:57:09.816Z,34.55
2018-03-08T08:58:09.820Z,34.52
2018-03-08T08:59:09.820Z,34.56
2018-03-08T09:00:09.825Z,34.55
2018-03-08T09:01:09.832Z,34.52
2018-03-08T09:02:09.829Z,34.53
2018-03-08T09:03:10.105Z,34.55
2018-03-08T09:04:09.829Z,34.5
2018-03-08T09:05:09.890Z,34.53
2018-03-08T09:06:09.786Z,34.52
2018-03-08T09:07:09.824Z,34.51
2018-03-08T09:08:09.842Z,34.54
2018-03-08T09:09:09.826Z,34.51
2018-03-08T09:10:09.822Z,34.48
2018-03-08T09:11:09.847Z,34.49
2018-03-08T09:12:09.817Z,34.54
2018-03-08T09:13:09.852Z,34.54
2018-03-08T09:14:09.825Z,34.51
2018-03-08T09:15:09.868Z,34.52
2018-03-08T09:16:09.810Z,34.55
2018-03-08T09:17:09.831Z,34.46
2018-03-08T09:18:09.830Z,34.5
2018-03-08T09:19:09.813Z,34.49
2018-03-08T09:20:09.816Z,34.48
2018-03-08T09:21:09.811Z,34.51
2018-03-08T09:22:09.827Z,34.45
2018-03-08T09:23:09.844Z,34.47
2018-03-08T09:24:09.827Z,34.48
2018-03-08T09:25:09.821Z,34.45
2018-03-08T09:26:09.816Z,34.46
2018-03-08T09:27:09.823Z,34.47
2018-03-08T09:28:09.813Z,34.47
2018-03-08T09:29:09.812Z,34.42
2018-03-08T09:30:09.833Z,34.43
2018-03-08T09:31:09.819Z,34.48
2018-03-08T09:32:09.805Z,34.47
2018-03-08T09:33:09.818Z,34.44
2018-03-08T09:34:09.806Z,34.44
2018-03-08T09:35:09.806Z,34.47
2018-03-08T09:36:09.805Z,34.4
2018-03-08T09:37:09.810Z,34.43
2018-03-08T09:38:09.806Z,34.47
2018-03-08T09:39:09.820Z,34.38
2018-03-08T09:40:09.815Z,34.44
2018-03-08T09:41:09.801Z,34.43
2018-03-08T09:42:09.812Z,34.42
2018-03-08T09:43:09.816Z,34.42
2018-03-08T09:44:09.804Z,34.45
2018-03-08T09:45:09.796Z,34.42
2018-03-08T09:46:09.814Z,34.49
2018-03-08T09:47:09.809Z,34.4
2018-03-08T09:48:09.810Z,34.46
2018-03-08T09:49:09.902Z,34.46
2018-03-08T09:50:09.823Z,34.47
2018-03-08T09:51:09.819Z,34.38
2018-03-08T09:52:09.845Z,34.42
2018-03-08T09:53:09.808Z,34.4
2018-03-08T09:54:09.806Z,34.42
2018-03-08T09:55:09.804Z,34.42
2018-03-08T09:56:09.809Z,34.45
2018-03-08T09:57:09.816Z,34.34
2018-03-08T09:58:09.804Z,34.39
2018-03-08T09:59:09.810Z,34.39
2018-03-08T10:00:09.806Z,34.41
2018-03-08T10:01:09.810Z,34.36
2018-03-08T10:02:09.816Z,34.38
2018-03-08T10:03:09.796Z,34.35
2018-03-08T10:04:09.857Z,34.38
2018-03-08T10:05:09.809Z,34.42
2018-03-08T10:06:09.809Z,34.36
2018-03-08T10:07:09.816Z,34.38
2018-03-08T10:08:09.814Z,34.37
2018-03-08T10:09:09.827Z,34.42
2018-03-08T10:10:09.803Z,34.39
2018-03-08T10:11:09.802Z,34.34
2018-03-08T10:12:09.793Z,34.34
2018-03-08T10:13:09.937Z,34.41
2018-03-08T10:14:09.837Z,34.35
2018-03-08T10:15:09.798Z,34.31
2018-03-08T10:16:09.807Z,34.4
2018-03-08T10:17:09.801Z,34.37
2018-03-08T10:18:09.821Z,34.34
2018-03-08T10:19:09.830Z,34.33
2018-03-08T10:20:09.794Z,34.39
2018-03-08T10:21:09.795Z,34.34
2018-03-08T10:22:09.789Z,34.35
2018-03-08T10:23:09.798Z,34.35
2018-03-08T10:24:09.820Z,34.35
2018-03-08T10:25:09.804Z,34.33
2018-03-08T10:26:09.954Z,34.28
2018-03-08T10:27:09.804Z,34.33
2018-03-08T10:28:09.841Z,34.34
2018-03-08T10:29:09.818Z,34.29
2018-03-08T10:30:09.793Z,34.31
2018-03-08T10:31:09.797Z,34.34
2018-03-08T10:32:09.784Z,34.37
2018-03-08T10:33:09.807Z,34.33
2018-03-08T10:34:09.799Z,34.29
2018-03-08T10:35:09.781Z,34.36
2018-03-08T10:36:09.777Z,34.32
2018-03-08T10:37:09.782Z,34.31
2018-03-08T10:38:09.801Z,34.36
2018-03-08T10:40:09.809Z,34.27
2018-03-08T10:41:09.976Z,34.53
2018-03-08T10:42:09.797Z,34.33
2018-03-08T10:43:09.806Z,34.31
2018-03-08T10:44:09.783Z,34.31
2018-03-08T10:45:09.848Z,34.37
2018-03-08T10:46:09.779Z,34.32
2018-03-08T10:47:09.795Z,34.35
2018-03-08T10:48:09.797Z,34.32
2018-03-08T10:49:09.807Z,34.28
2018-03-08T10:50:09.775Z,34.3
2018-03-08T10:51:09.794Z,34.34
2018-03-08T10:52:09.792Z,34.31
2018-03-08T10:53:09.776Z,34.23
2018-03-08T10:54:09.781Z,34.3
2018-03-08T10:55:09.792Z,34.31
2018-03-08T10:56:09.795Z,34.3
2018-03-08T10:57:09.777Z,34.34
2018-03-08T10:58:09.777Z,34.25
2018-03-08T10:59:09.809Z,34.29
2018-03-08T11:00:09.779Z,34.31
2018-03-08T11:01:09.779Z,34.31
2018-03-08T11:02:09.779Z,34.29
2018-03-08T11:03:09.880Z,34.34
2018-03-08T11:04:09.811Z,34.26
2018-03-08T11:05:09.792Z,34.35
2018-03-08T11:06:09.841Z,34.27
2018-03-08T11:07:09.933Z,34.32
2018-03-08T11:08:09.772Z,34.27
2018-03-08T11:09:09.820Z,34.26
2018-03-08T11:10:09.828Z,34.27
2018-03-08T11:11:09.786Z,34.23
2018-03-08T11:12:09.786Z,34.2
2018-03-08T11:13:09.783Z,34.26
2018-03-08T11:14:10.060Z,34.25
2018-03-08T11:15:09.771Z,34.29
2018-03-08T11:16:09.785Z,34.34
2018-03-08T11:17:09.785Z,34.34
2018-03-08T11:18:09.864Z,34.3
2018-03-08T11:19:09.809Z,34.3
2018-03-08T11:20:09.778Z,34.23
2018-03-08T11:21:09.788Z,34.29
2018-03-08T11:22:09.775Z,34.35
2018-03-08T11:23:09.802Z,34.29
2018-03-08T11:24:09.785Z,34.27
2018-03-08T11:25:09.783Z,34.33
2018-03-08T11:26:09.775Z,34.32
2018-03-08T11:27:09.776Z,34.27
2018-03-08T11:28:09.779Z,34.28
2018-03-08T11:29:09.785Z,34.25
2018-03-08T11:30:09.772Z,34.31
2018-03-08T11:31:09.779Z,34.23
2018-03-08T11:32:09.778Z,34.32
2018-03-08T11:33:09.775Z,34.27
2018-03-08T11:34:09.826Z,34.28
2018-03-08T11:35:09.785Z,34.25
2018-03-08T11:36:09.777Z,34.28
2018-03-08T11:37:09.769Z,34.29
2018-03-08T11:38:09.778Z,34.32
2018-03-08T11:39:09.793Z,34.31
2018-03-08T11:40:09.772Z,34.27
2018-03-08T11:41:09.773Z,34.21
2018-03-08T11:42:09.766Z,34.21
2018-03-08T11:43:09.798Z,34.26
2018-03-08T11:44:09.790Z,34.2
2018-03-08T11:45:09.789Z,34.23
2018-03-08T11:46:09.764Z,34.21
2018-03-08T11:47:09.772Z,34.24
2018-03-08T11:48:10.804Z,34.18
2018-03-08T11:49:09.775Z,34.16
2018-03-08T11:50:09.787Z,34.23
2018-03-08T11:51:09.775Z,34.22
2018-03-08T11:52:09.766Z,34.18
2018-03-08T11:53:09.775Z,34.22
2018-03-08T11:54:09.766Z,34.2
2018-03-08T11:55:09.799Z,34.24
2018-03-08T11:56:09.765Z,34.26
2018-03-08T11:57:09.763Z,34.2
2018-03-08T11:58:09.773Z,34.16
2018-03-08T11:59:09.765Z,34.21
2018-03-08T12:00:09.783Z,34.22
2018-03-08T12:01:09.772Z,34.19
2018-03-08T12:02:09.784Z,34.17
2018-03-08T12:03:09.766Z,34.2
2018-03-08T12:04:09.778Z,34.12
2018-03-08T12:05:09.766Z,34.2
2018-03-08T12:06:09.776Z,34.2
2018-03-08T12:07:09.761Z,34.18
2018-03-08T12:08:09.762Z,34.19
2018-03-08T12:09:09.763Z,34.2
2018-03-08T12:10:10.051Z,34.12
2018-03-08T12:11:09.770Z,34.21
2018-03-08T12:12:09.757Z,34.19
2018-03-08T12:13:09.771Z,34.19
2018-03-08T12:14:09.771Z,34.21
2018-03-08T12:15:09.791Z,34.19
2018-03-08T12:16:09.787Z,34.19
2018-03-08T12:17:09.757Z,34.24
2018-03-08T12:18:09.762Z,34.15
2018-03-08T12:19:09.766Z,34.26
2018-03-08T12:20:09.763Z,34.2
2018-03-08T12:21:09.754Z,34.18
2018-03-08T12:22:09.763Z,34.2
2018-03-08T12:23:09.836Z,34.25
2018-03-08T12:24:09.762Z,34.21
2018-03-08T12:25:09.757Z,34.21
2018-03-08T12:26:09.756Z,34.17
2018-03-08T12:27:09.760Z,34.18
2018-03-08T12:28:09.893Z,34.2
2018-03-08T12:29:09.763Z,34.2
2018-03-08T12:30:09.756Z,34.2
2018-03-08T12:31:09.762Z,34.21
2018-03-08T12:32:09.760Z,34.25
2018-03-08T12:33:09.604Z,34.21
2018-03-08T12:34:09.755Z,34.23
2018-03-08T12:35:09.762Z,34.22
2018-03-08T12:37:09.746Z,34.27
2018-03-08T12:38:09.748Z,34.26
2018-03-08T12:39:09.754Z,34.22
2018-03-08T12:40:09.750Z,34.26
2018-03-08T12:41:09.753Z,34.22
2018-03-08T12:42:09.747Z,34.26
2018-03-08T12:43:09.746Z,34.26
2018-03-08T12:44:09.750Z,34.3
2018-03-08T12:45:09.752Z,34.25
2018-03-08T12:46:09.778Z,34.19
2018-03-08T12:47:09.755Z,34.24
2018-03-08T12:48:09.751Z,34.26
2018-03-08T12:49:09.748Z,34.29
2018-03-08T12:50:09.773Z,34.28
2018-03-08T12:51:09.755Z,34.15
2018-03-08T12:52:09.738Z,34.27
2018-03-08T12:53:09.787Z,34.17
2018-03-08T12:54:09.760Z,34.27
2018-03-08T12:55:09.751Z,34.24
2018-03-08T12:56:09.759Z,34.22
2018-03-08T12:57:09.749Z,34.21